Time;durP1;ratioP1;P1;durP2;ratioP2;P2;SDS_P1;SDS_P2;PMS_P1;PMS_P2;Temp;Humidity;BMP_temperature;BMP_pressure;BME280_temperature;BME280_humidity;BME280_pressure;Samples;Min_cycle;Max_cycle;Signal;HPM_P1;HPM_P2
2023/09/28 00:02:13;;;;;;;4.70;3.45;;;;;;;;;;5898485;28;20059;-72
2023/09/28 00:05:05;;;;;;;6.38;2.95;;;;;;;;;;5894167;28;20056;-74
2023/09/28 00:07:56;;;;;;;14.20;3.17;;;;;;;;;;5902592;28;20548;-74
2023/09/28 00:10:47;;;;;;;4.93;3.13;;;;;;;;;;5876949;28;20044;-74
2023/09/28 00:13:37;;;;;;;3.30;2.47;;;;;;;;;;5894029;28;20091;-72
2023/09/28 00:16:28;;;;;;;4.68;2.90;;;;;;;;;;5894362;28;20040;-72
2023/09/28 00:19:19;;;;;;;4.97;3.55;;;;;;;;;;5890047;28;20040;-74
2023/09/28 00:22:10;;;;;;;11.27;4.72;;;;;;;;;;5890543;28;20048;-73
2023/09/28 00:25:00;;;;;;;5.53;3.80;;;;;;;;;;5899067;28;20487;-74
2023/09/28 00:27:58;;;;;;;4.90;3.38;;;;;;;;;;5898192;28;20095;-72
2023/09/28 00:30:49;;;;;;;4.78;3.00;;;;;;;;;;5888175;28;20052;-72
2023/09/28 00:33:42;;;;;;;7.72;3.40;;;;;;;;;;5913632;28;20407;-73
2023/09/28 00:36:32;;;;;;;6.65;3.60;;;;;;;;;;5913637;28;20417;-72
2023/09/28 00:39:23;;;;;;;2.83;2.55;;;;;;;;;;5913558;28;20052;-74
2023/09/28 00:42:14;;;;;;;4.50;3.10;;;;;;;;;;5913456;28;20040;-73
2023/09/28 00:45:06;;;;;;;6.47;3.55;;;;;;;;;;5895467;28;20049;-73
2023/09/28 00:48:03;;;;;;;7.78;5.50;;;;;;;;;;5896129;28;20051;-74
2023/09/28 00:50:54;;;;;;;5.20;3.47;;;;;;;;;;5913573;28;20045;-73
2023/09/28 00:53:45;;;;;;;6.25;3.67;;;;;;;;;;5913198;28;20046;-72
2023/09/28 00:56:36;;;;;;;4.10;3.13;;;;;;;;;;5913268;28;20063;-73
2023/09/28 00:59:27;;;;;;;2.95;2.53;;;;;;;;;;5895388;28;20040;-72
2023/09/28 01:02:18;;;;;;;5.25;3.47;;;;;;;;;;5913022;28;20055;-73
2023/09/28 01:05:09;;;;;;;8.00;3.35;;;;;;;;;;5895122;28;20048;-73
2023/09/28 01:08:19;;;;;;;6.40;3.22;;;;;;;;;;5913458;28;20051;-73
2023/09/28 01:11:10;;;;;;;5.03;3.75;;;;;;;;;;5912600;28;20047;-74
2023/09/28 01:14:02;;;;;;;4.85;3.38;;;;;;;;;;5912607;28;20052;-75
2023/09/28 01:16:53;;;;;;;5.35;3.45;;;;;;;;;;5895426;28;20168;-73
2023/09/28 01:19:44;;;;;;;5.65;2.97;;;;;;;;;;5894710;28;20052;-74
2023/09/28 01:22:35;;;;;;;5.03;3.13;;;;;;;;;;5912504;28;20072;-73
2023/09/28 01:25:26;;;;;;;5.60;2.75;;;;;;;;;;5912466;28;20053;-73
2023/09/28 01:28:17;;;;;;;9.60;2.95;;;;;;;;;;5912285;28;20048;-74
2023/09/28 01:31:08;;;;;;;4.80;3.55;;;;;;;;;;5911387;28;20055;-74
2023/09/28 01:33:59;;;;;;;5.60;3.40;;;;;;;;;;5912543;28;20041;-74
2023/09/28 01:36:50;;;;;;;5.55;3.65;;;;;;;;;;5912344;28;20052;-73
2023/09/28 01:39:41;;;;;;;2.63;2.42;;;;;;;;;;5912142;28;20075;-75
2023/09/28 01:42:31;;;;;;;3.53;2.75;;;;;;;;;;5912217;28;20045;-74
2023/09/28 01:45:22;;;;;;;2.97;2.53;;;;;;;;;;5912022;28;20468;-74
2023/09/28 01:48:14;;;;;;;4.53;3.60;;;;;;;;;;5911961;28;20045;-75
2023/09/28 01:51:05;;;;;;;4.22;2.72;;;;;;;;;;5903410;28;20116;-74
2023/09/28 01:53:56;;;;;;;3.80;3.25;;;;;;;;;;5905033;28;20040;-74
2023/09/28 01:56:47;;;;;;;4.13;3.28;;;;;;;;;;5911718;28;20041;-74
2023/09/28 01:59:38;;;;;;;8.32;3.08;;;;;;;;;;5911823;28;20058;-75
2023/09/28 02:02:29;;;;;;;6.40;3.78;;;;;;;;;;5889955;28;20040;-74
2023/09/28 02:05:32;;;;;;;6.32;3.55;;;;;;;;;;5899145;28;20045;-75
2023/09/28 02:08:23;;;;;;;4.70;3.00;;;;;;;;;;5875486;28;20060;-75
2023/09/28 02:11:13;;;;;;;3.75;2.47;;;;;;;;;;5888344;28;20526;-75
2023/09/28 02:14:04;;;;;;;6.28;3.75;;;;;;;;;;5888289;28;20314;-74
2023/09/28 02:16:56;;;;;;;2.65;2.45;;;;;;;;;;5896814;28;20045;-76
2023/09/28 02:19:49;;;;;;;5.07;2.65;;;;;;;;;;5876440;28;20052;-74
2023/09/28 02:22:44;;;;;;;3.88;3.53;;;;;;;;;;5885464;28;20131;-74
2023/09/28 02:25:35;;;;;;;8.07;2.83;;;;;;;;;;5889615;28;20055;-74
2023/09/28 02:28:26;;;;;;;3.33;2.33;;;;;;;;;;5887431;28;20090;-76
2023/09/28 02:31:17;;;;;;;4.18;2.80;;;;;;;;;;5887523;28;20047;-74
2023/09/28 02:34:08;;;;;;;8.20;2.38;;;;;;;;;;5887513;28;20253;-74
2023/09/28 02:37:01;;;;;;;3.78;2.33;;;;;;;;;;5887958;28;20052;-74
2023/09/28 02:39:52;;;;;;;3.80;3.38;;;;;;;;;;5904097;28;20120;-74
2023/09/28 02:42:43;;;;;;;5.95;2.40;;;;;;;;;;5901260;28;20044;-74
2023/09/28 02:45:35;;;;;;;7.53;3.45;;;;;;;;;;5897779;28;20454;-74
2023/09/28 02:48:27;;;;;;;3.22;2.38;;;;;;;;;;5899101;28;20052;-75
2023/09/28 02:51:18;;;;;;;4.93;3.28;;;;;;;;;;5874001;28;20061;-75
2023/09/28 02:54:09;;;;;;;5.85;3.05;;;;;;;;;;5887047;28;20491;-74
2023/09/28 02:57:00;;;;;;;4.07;3.25;;;;;;;;;;5887797;28;20046;-74
2023/09/28 02:59:50;;;;;;;4.55;2.92;;;;;;;;;;5902843;28;20037;-75
2023/09/28 03:02:42;;;;;;;6.50;3.78;;;;;;;;;;5896790;28;20049;-74
2023/09/28 03:05:33;;;;;;;4.03;3.15;;;;;;;;;;5906778;28;20130;-75
2023/09/28 03:08:24;;;;;;;3.60;2.38;;;;;;;;;;5910562;28;20479;-74
2023/09/28 03:11:15;;;;;;;8.88;3.70;;;;;;;;;;5910385;28;20060;-74
2023/09/28 03:14:06;;;;;;;5.22;3.47;;;;;;;;;;5910414;28;20041;-75
2023/09/28 03:16:57;;;;;;;2.70;2.47;;;;;;;;;;5911037;28;20040;-75
2023/09/28 03:19:48;;;;;;;4.13;3.22;;;;;;;;;;5910745;28;20090;-75
2023/09/28 03:22:45;;;;;;;5.93;3.92;;;;;;;;;;5910725;28;20040;-74
2023/09/28 03:25:36;;;;;;;6.82;4.28;;;;;;;;;;5910641;28;20071;-75
2023/09/28 03:28:30;;;;;;;4.15;3.40;;;;;;;;;;5906909;28;20036;-75
2023/09/28 03:31:21;;;;;;;8.00;3.95;;;;;;;;;;5905116;28;20487;-74
2023/09/28 03:34:12;;;;;;;6.05;4.15;;;;;;;;;;5910422;28;20053;-74
2023/09/28 03:37:03;;;;;;;4.53;3.05;;;;;;;;;;5910541;28;20048;-75
2023/09/28 03:39:56;;;;;;;4.93;3.95;;;;;;;;;;5910742;28;20040;-74
2023/09/28 03:42:50;;;;;;;6.22;3.53;;;;;;;;;;5910335;28;20055;-75
2023/09/28 03:45:41;;;;;;;4.70;3.75;;;;;;;;;;5910085;28;20411;-74
2023/09/28 03:48:32;;;;;;;6.55;3.60;;;;;;;;;;5907154;28;20128;-74
2023/09/28 03:51:23;;;;;;;3.28;2.78;;;;;;;;;;5896685;28;20041;-76
2023/09/28 03:54:14;;;;;;;6.07;4.25;;;;;;;;;;5913143;28;20044;-75
2023/09/28 03:57:04;;;;;;;4.70;2.90;;;;;;;;;;5896972;28;20044;-75
2023/09/28 03:59:56;;;;;;;10.10;3.78;;;;;;;;;;5900060;28;20182;-74
2023/09/28 04:02:49;;;;;;;3.83;3.35;;;;;;;;;;5905551;28;20040;-74
2023/09/28 04:05:44;;;;;;;8.82;3.35;;;;;;;;;;5899471;28;20480;-75
2023/09/28 04:08:36;;;;;;;21.15;3.35;;;;;;;;;;5903804;28;20052;-74
2023/09/28 04:11:28;;;;;;;3.33;2.95;;;;;;;;;;5914096;28;20040;-75
2023/09/28 04:14:18;;;;;;;5.07;3.45;;;;;;;;;;5914014;28;20055;-74
2023/09/28 04:17:09;;;;;;;10.32;3.88;;;;;;;;;;5913916;28;20121;-75
2023/09/28 04:20:04;;;;;;;9.48;4.38;;;;;;;;;;5914479;28;20170;-74
2023/09/28 04:22:55;;;;;;;3.75;3.10;;;;;;;;;;5913871;28;20052;-74
2023/09/28 04:25:46;;;;;;;5.07;2.78;;;;;;;;;;5913864;28;20052;-75
2023/09/28 04:28:37;;;;;;;4.90;3.78;;;;;;;;;;5900098;28;20132;-75
2023/09/28 04:31:28;;;;;;;8.27;3.70;;;;;;;;;;5902334;28;20044;-74
2023/09/28 04:34:19;;;;;;;4.35;3.53;;;;;;;;;;5909870;28;20056;-75
2023/09/28 04:37:09;;;;;;;9.18;4.78;;;;;;;;;;5907831;28;20066;-74
2023/09/28 04:40:00;;;;;;;5.13;3.75;;;;;;;;;;5913928;28;20928;-74
2023/09/28 04:42:52;;;;;;;7.00;3.45;;;;;;;;;;5896048;28;20396;-74
2023/09/28 04:45:43;;;;;;;10.95;3.97;;;;;;;;;;5899051;28;20065;-75
2023/09/28 04:48:34;;;;;;;7.22;3.85;;;;;;;;;;5902866;28;20048;-74
2023/09/28 04:51:25;;;;;;;10.20;5.28;;;;;;;;;;5901663;28;20051;-74
2023/09/28 04:54:16;;;;;;;5.93;4.10;;;;;;;;;;5900111;28;20049;-76
2023/09/28 04:57:07;;;;;;;18.55;3.70;;;;;;;;;;5887208;28;20045;-74
2023/09/28 04:59:58;;;;;;;6.45;4.43;;;;;;;;;;5897061;28;20041;-76
2023/09/28 05:02:49;;;;;;;3.75;3.22;;;;;;;;;;5872097;28;20114;-74
2023/09/28 05:05:40;;;;;;;7.28;4.18;;;;;;;;;;5889287;28;20049;-74
2023/09/28 05:08:31;;;;;;;4.07;3.40;;;;;;;;;;5889181;28;20058;-76
2023/09/28 05:11:22;;;;;;;4.40;3.47;;;;;;;;;;5892477;28;20044;-75
2023/09/28 05:14:13;;;;;;;29.40;4.47;;;;;;;;;;5912880;28;20044;-74
2023/09/28 05:17:03;;;;;;;11.20;3.83;;;;;;;;;;5911665;28;20645;-74
2023/09/28 05:19:54;;;;;;;29.73;3.38;;;;;;;;;;5895389;28;20044;-75
2023/09/28 05:22:45;;;;;;;9.02;3.50;;;;;;;;;;5912603;28;20124;-74
2023/09/28 05:25:37;;;;;;;5.28;3.15;;;;;;;;;;5912454;28;20071;-75
2023/09/28 05:28:28;;;;;;;5.30;4.20;;;;;;;;;;5912169;28;20037;-75
2023/09/28 05:31:19;;;;;;;8.68;3.83;;;;;;;;;;5911331;28;20431;-74
2023/09/28 05:34:11;;;;;;;7.28;4.15;;;;;;;;;;5912338;28;20059;-76
2023/09/28 05:37:01;;;;;;;5.35;3.97;;;;;;;;;;5912322;28;20098;-74
2023/09/28 05:39:54;;;;;;;7.68;4.05;;;;;;;;;;5912772;28;20048;-74
2023/09/28 05:42:44;;;;;;;9.55;4.68;;;;;;;;;;5911995;28;20040;-74
2023/09/28 05:45:35;;;;;;;6.85;4.15;;;;;;;;;;5910728;28;20048;-75
2023/09/28 05:48:26;;;;;;;4.72;2.85;;;;;;;;;;5911846;28;20045;-74
2023/09/28 05:51:17;;;;;;;5.35;3.83;;;;;;;;;;5911686;28;20052;-73
2023/09/28 05:54:08;;;;;;;6.63;3.65;;;;;;;;;;5911919;28;20151;-74
2023/09/28 05:56:58;;;;;;;6.20;4.57;;;;;;;;;;5912334;28;20045;-74
2023/09/28 05:59:50;;;;;;;3.55;2.67;;;;;;;;;;5911782;28;20041;-74
2023/09/28 06:02:40;;;;;;;6.95;4.13;;;;;;;;;;5911502;28;20168;-75
2023/09/28 06:05:31;;;;;;;5.55;4.32;;;;;;;;;;5911292;28;20051;-74
2023/09/28 06:08:22;;;;;;;4.47;3.85;;;;;;;;;;5911291;28;20459;-73
2023/09/28 06:11:14;;;;;;;4.15;3.65;;;;;;;;;;5893704;28;20106;-74
2023/09/28 06:14:05;;;;;;;5.43;4.45;;;;;;;;;;5893296;28;20048;-75
2023/09/28 06:16:59;;;;;;;6.45;3.83;;;;;;;;;;5893839;28;20152;-75
2023/09/28 06:19:50;;;;;;;5.30;3.50;;;;;;;;;;5911331;28;20045;-74
2023/09/28 06:22:48;;;;;;;7.35;3.38;;;;;;;;;;5910934;28;20047;-74
2023/09/28 06:25:38;;;;;;;9.57;4.45;;;;;;;;;;5910874;28;20511;-74
2023/09/28 06:28:29;;;;;;;5.43;3.55;;;;;;;;;;5909697;28;20506;-74
2023/09/28 06:31:20;;;;;;;5.75;4.13;;;;;;;;;;5911126;28;20047;-74
2023/09/28 06:34:11;;;;;;;4.60;2.97;;;;;;;;;;5911035;28;20044;-74
2023/09/28 06:37:02;;;;;;;5.25;3.60;;;;;;;;;;5910940;28;20036;-74
2023/09/28 06:39:53;;;;;;;4.88;2.75;;;;;;;;;;5911399;28;20045;-74
2023/09/28 06:42:44;;;;;;;5.07;3.28;;;;;;;;;;5910801;28;20040;-74
2023/09/28 06:45:35;;;;;;;4.30;3.17;;;;;;;;;;5910548;28;20425;-74
2023/09/28 06:48:26;;;;;;;6.38;3.38;;;;;;;;;;5892853;28;20064;-74
2023/09/28 06:51:19;;;;;;;7.88;2.88;;;;;;;;;;5910552;28;20123;-74
2023/09/28 06:54:11;;;;;;;4.47;2.55;;;;;;;;;;5910298;28;20040;-73
2023/09/28 06:57:03;;;;;;;4.93;2.33;;;;;;;;;;5910541;28;20127;-74
2023/09/28 06:59:53;;;;;;;3.10;2.80;;;;;;;;;;5910905;28;20086;-74
2023/09/28 07:02:47;;;;;;;2.22;2.03;;;;;;;;;;5910480;28;20045;-74
2023/09/28 07:05:38;;;;;;;7.32;3.30;;;;;;;;;;5907184;28;20041;-74
2023/09/28 07:08:29;;;;;;;8.48;3.28;;;;;;;;;;5910357;28;20045;-75
2023/09/28 07:11:20;;;;;;;3.58;2.47;;;;;;;;;;5910259;28;20045;-75
2023/09/28 07:14:12;;;;;;;2.17;1.70;;;;;;;;;;5910423;28;20126;-74
2023/09/28 07:17:03;;;;;;;6.80;3.08;;;;;;;;;;5910337;28;20036;-74
2023/09/28 07:19:54;;;;;;;8.40;3.03;;;;;;;;;;5910494;28;20052;-74
2023/09/28 07:22:46;;;;;;;3.22;1.98;;;;;;;;;;5910019;28;20529;-74
2023/09/28 07:25:37;;;;;;;3.85;2.47;;;;;;;;;;5909850;28;20499;-74
2023/09/28 07:28:28;;;;;;;4.50;2.28;;;;;;;;;;5913648;28;20407;-74
2023/09/28 07:31:20;;;;;;;9.85;2.63;;;;;;;;;;5897017;28;20041;-74
2023/09/28 07:34:11;;;;;;;7.18;1.88;;;;;;;;;;5914761;28;20041;-74
2023/09/28 07:37:03;;;;;;;2.65;1.80;;;;;;;;;;5914441;28;20062;-74
2023/09/28 07:39:54;;;;;;;3.45;1.80;;;;;;;;;;5914958;28;20487;-74
2023/09/28 07:42:45;;;;;;;4.00;2.03;;;;;;;;;;5914474;28;20040;-74
2023/09/28 07:45:37;;;;;;;4.00;1.95;;;;;;;;;;5914055;28;20056;-74
2023/09/28 07:48:28;;;;;;;22.25;1.95;;;;;;;;;;5914198;28;20044;-75
2023/09/28 07:51:19;;;;;;;4.43;1.80;;;;;;;;;;5914359;28;20048;-74
2023/09/28 07:54:10;;;;;;;13.95;2.05;;;;;;;;;;5913929;28;20045;-75
2023/09/28 07:57:01;;;;;;;3.03;1.48;;;;;;;;;;5905970;28;20127;-75
2023/09/28 07:59:54;;;;;;;2.72;1.38;;;;;;;;;;5906157;28;20044;-74
2023/09/28 08:02:45;;;;;;;15.05;1.95;;;;;;;;;;5913800;28;20051;-74
2023/09/28 08:05:36;;;;;;;3.78;1.40;;;;;;;;;;5913963;28;20127;-74
2023/09/28 08:08:27;;;;;;;7.90;1.90;;;;;;;;;;5913658;28;20044;-75
2023/09/28 08:11:18;;;;;;;52.30;2.95;;;;;;;;;;5913713;28;20045;-74
2023/09/28 08:14:09;;;;;;;3.80;1.95;;;;;;;;;;5913799;28;20347;-75
2023/09/28 08:17:00;;;;;;;5.97;2.03;;;;;;;;;;5913834;28;20044;-74
2023/09/28 08:19:51;;;;;;;19.75;1.73;;;;;;;;;;5913850;28;20036;-74
2023/09/28 08:22:42;;;;;;;9.30;2.45;;;;;;;;;;5913589;28;20037;-74
2023/09/28 08:25:34;;;;;;;5.50;2.55;;;;;;;;;;5913491;28;20098;-74
2023/09/28 08:28:25;;;;;;;2.28;1.60;;;;;;;;;;5913385;28;20056;-74
2023/09/28 08:31:16;;;;;;;5.93;2.03;;;;;;;;;;5913344;28;20071;-75
2023/09/28 08:34:08;;;;;;;4.97;2.00;;;;;;;;;;5913281;28;20475;-74
2023/09/28 08:36:59;;;;;;;3.28;1.77;;;;;;;;;;5913871;28;20054;-74
2023/09/28 08:39:51;;;;;;;9.65;2.10;;;;;;;;;;5912593;28;20047;-74
2023/09/28 08:42:45;;;;;;;3.65;1.52;;;;;;;;;;5895109;28;20044;-75
2023/09/28 08:45:40;;;;;;;4.88;1.15;;;;;;;;;;5895507;28;20060;-74
2023/09/28 08:48:36;;;;;;;1.63;1.30;;;;;;;;;;5912853;28;20050;-75
2023/09/28 08:51:28;;;;;;;2.17;1.40;;;;;;;;;;5912866;28;20178;-74
2023/09/28 08:54:21;;;;;;;3.97;1.50;;;;;;;;;;5912833;28;20055;-74
2023/09/28 08:57:14;;;;;;;2.13;1.30;;;;;;;;;;5895220;28;20044;-74
2023/09/28 09:00:13;;;;;;;3.20;1.17;;;;;;;;;;5912470;28;20058;-75
2023/09/28 09:03:06;;;;;;;6.72;1.23;;;;;;;;;;5912710;28;20128;-74
2023/09/28 09:05:58;;;;;;;3.72;1.33;;;;;;;;;;5912862;28;20055;-74
2023/09/28 09:08:49;;;;;;;2.72;1.13;;;;;;;;;;5912606;28;20147;-74
2023/09/28 09:11:52;;;;;;;2.72;1.30;;;;;;;;;;5894445;28;20049;-74
2023/09/28 09:14:43;;;;;;;1.30;1.02;;;;;;;;;;5894935;28;20060;-74
2023/09/28 09:17:35;;;;;;;2.25;1.02;;;;;;;;;;5912217;28;20044;-74
2023/09/28 09:20:29;;;;;;;5.93;1.98;;;;;;;;;;5894627;28;20467;-74
2023/09/28 09:23:20;;;;;;;5.25;1.35;;;;;;;;;;5894453;28;20064;-75
2023/09/28 09:26:18;;;;;;;2.13;1.30;;;;;;;;;;5912124;28;20044;-74
2023/09/28 09:29:12;;;;;;;2.17;1.60;;;;;;;;;;5910877;28;20462;-74
2023/09/28 09:32:03;;;;;;;2.45;1.27;;;;;;;;;;5894458;28;20049;-74
2023/09/28 09:34:54;;;;;;;2.97;1.02;;;;;;;;;;5903832;28;20062;-74
2023/09/28 09:37:53;;;;;;;1.85;1.08;;;;;;;;;;5910954;28;20044;-74
2023/09/28 09:40:57;;;;;;;2.63;1.20;;;;;;;;;;5877794;28;20037;-74
2023/09/28 09:43:51;;;;;;;2.95;1.33;;;;;;;;;;5911582;28;20055;-74
2023/09/28 09:46:42;;;;;;;4.55;1.60;;;;;;;;;;5911298;28;20055;-74
2023/09/28 09:49:33;;;;;;;2.13;1.23;;;;;;;;;;5911073;28;20044;-74
2023/09/28 09:52:25;;;;;;;1.75;1.33;;;;;;;;;;5893065;28;20044;-75
2023/09/28 09:55:16;;;;;;;3.25;2.03;;;;;;;;;;5893922;28;20051;-75
2023/09/28 09:58:14;;;;;;;0.75;0.75;;;;;;;;;;5909948;28;20045;-75
2023/09/28 10:01:12;;;;;;;5.05;1.33;;;;;;;;;;5911479;28;20423;-74
2023/09/28 10:04:05;;;;;;;2.92;1.10;;;;;;;;;;5910938;28;20044;-74
2023/09/28 10:07:00;;;;;;;14.02;1.25;;;;;;;;;;5894085;28;20056;-74
2023/09/28 10:09:53;;;;;;;4.22;1.98;;;;;;;;;;5894006;28;20120;-74
2023/09/28 10:12:45;;;;;;;3.03;1.00;;;;;;;;;;5893564;28;20049;-74
2023/09/28 10:15:37;;;;;;;3.33;1.05;;;;;;;;;;5893229;28;20045;-74
2023/09/28 10:18:30;;;;;;;2.60;1.45;;;;;;;;;;5893089;28;20411;-74
2023/09/28 10:21:21;;;;;;;2.55;1.20;;;;;;;;;;5910850;28;20074;-74
2023/09/28 10:24:20;;;;;;;5.80;1.45;;;;;;;;;;5910937;28;20044;-74
2023/09/28 10:27:11;;;;;;;1.98;1.05;;;;;;;;;;5893403;28;20044;-75
2023/09/28 10:30:25;;;;;;;5.18;1.23;;;;;;;;;;5910580;28;20045;-75
2023/09/28 10:33:16;;;;;;;2.20;1.23;;;;;;;;;;5910676;28;20044;-74
2023/09/28 10:36:12;;;;;;;0.70;0.60;;;;;;;;;;5910581;28;20484;-73
2023/09/28 10:39:14;;;;;;;12.60;1.35;;;;;;;;;;5910632;28;20051;-75
2023/09/28 10:42:11;;;;;;;2.25;1.45;;;;;;;;;;5910516;28;20055;-75
2023/09/28 10:45:05;;;;;;;1.63;0.77;;;;;;;;;;5892876;28;20133;-75
2023/09/28 10:47:57;;;;;;;2.40;0.98;;;;;;;;;;5910894;28;20507;-75
2023/09/28 10:50:48;;;;;;;1.90;0.98;;;;;;;;;;5910547;28;20072;-74
2023/09/28 10:53:39;;;;;;;1.20;0.90;;;;;;;;;;5910351;28;20063;-75
2023/09/28 10:56:31;;;;;;;9.43;0.90;;;;;;;;;;5892694;28;20051;-75
2023/09/28 10:59:25;;;;;;;1.70;0.90;;;;;;;;;;5910315;28;20051;-75
2023/09/28 11:02:18;;;;;;;1.00;0.73;;;;;;;;;;5910139;28;20044;-74
2023/09/28 11:05:12;;;;;;;0.70;0.63;;;;;;;;;;5910065;28;20059;-74
2023/09/28 11:08:04;;;;;;;0.95;0.90;;;;;;;;;;5909807;28;20131;-74
2023/09/28 11:10:58;;;;;;;3.67;1.38;;;;;;;;;;5892696;28;20045;-74
2023/09/28 11:13:49;;;;;;;2.05;1.27;;;;;;;;;;5909966;28;20049;-74
2023/09/28 11:16:41;;;;;;;2.95;1.10;;;;;;;;;;5910093;28;20395;-75
2023/09/28 11:19:34;;;;;;;1.35;0.90;;;;;;;;;;5892525;28;20384;-74
2023/09/28 11:22:28;;;;;;;1.00;0.90;;;;;;;;;;5910113;28;20122;-74
2023/09/28 11:25:19;;;;;;;1.40;0.77;;;;;;;;;;5910001;28;20041;-73
2023/09/28 11:28:30;;;;;;;1.20;0.90;;;;;;;;;;5909379;28;20578;-74
2023/09/28 11:31:21;;;;;;;3.28;1.00;;;;;;;;;;5910020;28;20071;-75
2023/09/28 11:34:11;;;;;;;4.35;1.10;;;;;;;;;;5892082;28;20472;-74
2023/09/28 11:37:02;;;;;;;4.13;1.65;;;;;;;;;;5910032;28;20041;-74
2023/09/28 11:39:53;;;;;;;2.78;1.45;;;;;;;;;;5910260;28;20041;-75
2023/09/28 11:42:48;;;;;;;1.02;0.93;;;;;;;;;;5891908;28;20067;-74
2023/09/28 11:45:39;;;;;;;3.85;1.23;;;;;;;;;;5909585;28;20380;-74
2023/09/28 11:48:31;;;;;;;11.90;1.52;;;;;;;;;;5909608;28;20051;-73
2023/09/28 11:51:22;;;;;;;1.27;0.93;;;;;;;;;;5909595;28;20072;-74
2023/09/28 11:54:15;;;;;;;14.70;1.73;;;;;;;;;;5909704;28;20380;-74
2023/09/28 11:57:09;;;;;;;3.05;0.82;;;;;;;;;;5891851;28;20049;-74
2023/09/28 12:00:01;;;;;;;5.78;1.23;;;;;;;;;;5909985;28;20138;-73
2023/09/28 12:02:52;;;;;;;1.55;0.90;;;;;;;;;;5909724;28;20063;-74
2023/09/28 12:05:43;;;;;;;1.75;1.15;;;;;;;;;;5909219;28;20048;-74
2023/09/28 12:08:36;;;;;;;5.00;1.05;;;;;;;;;;5909443;28;20156;-73
2023/09/28 12:11:26;;;;;;;4.18;1.08;;;;;;;;;;5909586;28;20099;-73
2023/09/28 12:14:18;;;;;;;2.08;1.05;;;;;;;;;;5911143;28;20576;-73
2023/09/28 12:17:10;;;;;;;6.55;1.35;;;;;;;;;;5913638;28;20048;-74
2023/09/28 12:20:01;;;;;;;2.50;1.58;;;;;;;;;;5913053;28;20485;-74
2023/09/28 12:22:52;;;;;;;1.67;1.15;;;;;;;;;;5911874;28;20450;-75
2023/09/28 12:25:42;;;;;;;3.28;1.00;;;;;;;;;;5904690;28;20471;-73
2023/09/28 12:28:35;;;;;;;3.53;1.38;;;;;;;;;;5912670;28;20399;-73
2023/09/28 12:31:25;;;;;;;0.70;0.70;;;;;;;;;;5913127;28;20048;-74
2023/09/28 12:34:16;;;;;;;4.82;0.90;;;;;;;;;;5912027;28;20056;-73
2023/09/28 12:37:09;;;;;;;3.95;1.33;;;;;;;;;;5929448;28;20048;-75
2023/09/28 12:40:00;;;;;;;2.75;1.08;;;;;;;;;;5918641;28;20037;-73
2023/09/28 12:42:50;;;;;;;17.63;1.20;;;;;;;;;;5898000;28;20450;-73
2023/09/28 12:45:43;;;;;;;3.92;1.17;;;;;;;;;;5893430;28;20059;-73
2023/09/28 12:48:34;;;;;;;1.42;0.93;;;;;;;;;;5906495;28;20076;-73
2023/09/28 12:51:25;;;;;;;2.53;1.55;;;;;;;;;;5901017;28;20044;-73
2023/09/28 12:54:20;;;;;;;1.40;0.85;;;;;;;;;;5883757;28;20267;-73
2023/09/28 12:57:11;;;;;;;2.03;0.60;;;;;;;;;;5916478;28;20120;-74
2023/09/28 13:00:08;;;;;;;2.40;0.93;;;;;;;;;;5917260;28;20040;-74
2023/09/28 13:03:07;;;;;;;1.85;1.42;;;;;;;;;;5911740;28;20052;-74
2023/09/28 13:05:58;;;;;;;4.07;1.38;;;;;;;;;;5897392;28;20174;-74
2023/09/28 13:08:50;;;;;;;1.42;0.95;;;;;;;;;;5906091;28;20126;-74
2023/09/28 13:11:42;;;;;;;2.30;1.15;;;;;;;;;;5904315;28;20044;-76
2023/09/28 13:14:34;;;;;;;6.28;1.48;;;;;;;;;;5909593;28;20044;-75
2023/09/28 13:17:27;;;;;;;2.55;1.67;;;;;;;;;;5921599;28;20040;-75
2023/09/28 13:20:26;;;;;;;4.57;1.38;;;;;;;;;;5913747;28;20475;-74
2023/09/28 13:23:17;;;;;;;1.95;1.20;;;;;;;;;;5917046;28;20415;-75
2023/09/28 13:26:09;;;;;;;5.40;0.95;;;;;;;;;;5921554;28;20044;-74
2023/09/28 13:29:00;;;;;;;1.92;1.15;;;;;;;;;;5923955;28;20044;-75
2023/09/28 13:31:52;;;;;;;0.95;0.82;;;;;;;;;;5920442;28;20032;-74
2023/09/28 13:34:44;;;;;;;4.97;1.13;;;;;;;;;;5919879;28;20072;-75
2023/09/28 13:37:35;;;;;;;22.30;1.98;;;;;;;;;;5922953;28;20044;-75
2023/09/28 13:40:33;;;;;;;2.17;1.02;;;;;;;;;;5922002;28;20040;-75
2023/09/28 13:43:24;;;;;;;3.30;1.33;;;;;;;;;;5918552;28;20051;-74
2023/09/28 13:46:16;;;;;;;3.15;0.82;;;;;;;;;;5904376;28;20123;-75
2023/09/28 13:49:08;;;;;;;6.22;1.60;;;;;;;;;;5922392;28;20051;-75
2023/09/28 13:51:59;;;;;;;3.38;0.90;;;;;;;;;;5922454;28;20035;-75
2023/09/28 13:54:50;;;;;;;2.83;1.40;;;;;;;;;;5922066;28;20045;-74
2023/09/28 13:57:44;;;;;;;2.70;1.58;;;;;;;;;;5923114;28;20051;-74
2023/09/28 14:00:39;;;;;;;1.77;0.82;;;;;;;;;;5909033;28;20047;-74
2023/09/28 14:03:31;;;;;;;3.00;1.20;;;;;;;;;;5911575;28;20057;-74
2023/09/28 14:06:22;;;;;;;2.97;1.20;;;;;;;;;;5911043;28;20135;-75
2023/09/28 14:09:14;;;;;;;2.00;1.40;;;;;;;;;;5921658;28;20067;-74
2023/09/28 14:12:11;;;;;;;3.42;1.48;;;;;;;;;;5921828;28;20051;-74
2023/09/28 14:15:05;;;;;;;1.60;1.23;;;;;;;;;;5906249;28;20514;-75
2023/09/28 14:18:00;;;;;;;4.70;1.58;;;;;;;;;;5927615;28;20040;-75
2023/09/28 14:20:52;;;;;;;15.77;1.80;;;;;;;;;;5902486;28;20374;-75
2023/09/28 14:23:43;;;;;;;1.77;1.38;;;;;;;;;;5914495;28;20044;-74
2023/09/28 14:26:41;;;;;;;3.50;1.50;;;;;;;;;;5915050;28;20056;-74
2023/09/28 14:29:34;;;;;;;3.22;1.60;;;;;;;;;;5919820;28;20048;-75
2023/09/28 14:32:25;;;;;;;3.97;1.58;;;;;;;;;;5910604;28;20045;-75
2023/09/28 14:35:16;;;;;;;3.83;1.35;;;;;;;;;;5915361;28;20040;-75
2023/09/28 14:38:08;;;;;;;3.20;1.10;;;;;;;;;;5915650;28;20547;-75
2023/09/28 14:40:58;;;;;;;4.75;1.92;;;;;;;;;;5906461;28;20082;-75
2023/09/28 14:43:50;;;;;;;1.48;0.95;;;;;;;;;;5913915;28;20052;-74
2023/09/28 14:46:41;;;;;;;10.30;1.92;;;;;;;;;;5904147;28;20063;-74
2023/09/28 14:49:31;;;;;;;15.07;1.40;;;;;;;;;;5912635;28;20381;-75
2023/09/28 14:52:22;;;;;;;11.25;1.33;;;;;;;;;;5914554;28;20051;-74
2023/09/28 14:55:13;;;;;;;34.00;2.15;;;;;;;;;;5920387;28;20044;-76
2023/09/28 14:58:04;;;;;;;9.57;1.95;;;;;;;;;;5920310;28;20037;-74
2023/09/28 15:00:55;;;;;;;3.50;1.52;;;;;;;;;;5914217;28;20039;-73
2023/09/28 15:03:46;;;;;;;2.60;1.33;;;;;;;;;;5909218;28;20044;-74
2023/09/28 15:06:37;;;;;;;4.00;1.33;;;;;;;;;;5920454;28;20375;-74
2023/09/28 15:09:31;;;;;;;3.60;2.28;;;;;;;;;;5916269;28;20044;-74
2023/09/28 15:12:24;;;;;;;2.85;1.05;;;;;;;;;;5915392;28;20040;-74
2023/09/28 15:15:17;;;;;;;1.63;1.27;;;;;;;;;;5918611;28;20051;-73
2023/09/28 15:18:08;;;;;;;2.55;1.50;;;;;;;;;;5920167;28;20364;-73
2023/09/28 15:20:58;;;;;;;3.72;1.75;;;;;;;;;;5920543;28;20043;-74
2023/09/28 15:23:49;;;;;;;2.60;1.52;;;;;;;;;;5919305;28;20045;-74
2023/09/28 15:26:41;;;;;;;23.88;2.22;;;;;;;;;;5920689;28;20048;-74
2023/09/28 15:29:32;;;;;;;4.22;1.80;;;;;;;;;;5915068;28;20364;-74
2023/09/28 15:32:22;;;;;;;4.10;1.65;;;;;;;;;;5909448;28;20072;-75
2023/09/28 15:35:14;;;;;;;6.57;1.75;;;;;;;;;;5917993;28;20127;-74
2023/09/28 15:38:06;;;;;;;3.85;1.77;;;;;;;;;;5902428;28;20146;-75
2023/09/28 15:40:57;;;;;;;5.18;1.70;;;;;;;;;;5920418;28;20131;-74
2023/09/28 15:43:48;;;;;;;6.63;1.90;;;;;;;;;;5915315;28;20045;-74
2023/09/28 15:46:39;;;;;;;3.97;2.38;;;;;;;;;;5913721;28;20047;-75
2023/09/28 15:49:29;;;;;;;21.67;1.52;;;;;;;;;;5919709;28;20385;-75
2023/09/28 15:52:20;;;;;;;2.78;1.85;;;;;;;;;;5910647;28;23107;-74
2023/09/28 15:55:11;;;;;;;12.70;2.13;;;;;;;;;;5915246;28;20164;-74
2023/09/28 15:58:02;;;;;;;10.82;2.22;;;;;;;;;;5924383;28;20048;-75
2023/09/28 16:00:53;;;;;;;4.97;2.75;;;;;;;;;;5919579;28;20052;-74
2023/09/28 16:03:47;;;;;;;4.72;1.92;;;;;;;;;;5912618;28;20045;-74
2023/09/28 16:06:38;;;;;;;4.53;2.65;;;;;;;;;;5912570;28;20202;-76
2023/09/28 16:09:29;;;;;;;3.78;2.30;;;;;;;;;;5921239;28;20075;-74
2023/09/28 16:12:20;;;;;;;2.83;2.03;;;;;;;;;;5918767;28;20052;-74
2023/09/28 16:15:10;;;;;;;3.13;2.30;;;;;;;;;;5905004;28;20044;-74
2023/09/28 16:18:01;;;;;;;5.65;3.03;;;;;;;;;;5912544;28;20411;-74
2023/09/28 16:20:52;;;;;;;7.05;3.55;;;;;;;;;;5914076;28;20076;-75
2023/09/28 16:23:43;;;;;;;12.77;3.42;;;;;;;;;;5910788;28;20052;-75
2023/09/28 16:26:34;;;;;;;3.22;2.03;;;;;;;;;;5916634;28;20126;-73
2023/09/28 16:29:25;;;;;;;9.13;2.53;;;;;;;;;;5913381;28;20044;-74
2023/09/28 16:32:16;;;;;;;9.32;2.97;;;;;;;;;;5912980;28;20484;-73
2023/09/28 16:35:10;;;;;;;11.27;3.83;;;;;;;;;;5903935;28;20049;-73
2023/09/28 16:38:01;;;;;;;3.92;2.70;;;;;;;;;;5898412;28;20488;-75
2023/09/28 16:40:51;;;;;;;8.18;3.45;;;;;;;;;;5905164;28;20047;-73
2023/09/28 16:43:42;;;;;;;8.73;3.10;;;;;;;;;;5898910;28;20053;-74
2023/09/28 16:46:33;;;;;;;12.20;2.55;;;;;;;;;;5897627;28;20044;-74
2023/09/28 16:49:24;;;;;;;5.85;2.63;;;;;;;;;;5896562;28;20044;-75
2023/09/28 16:52:15;;;;;;;5.55;2.97;;;;;;;;;;5886812;28;20057;-74
2023/09/28 16:55:07;;;;;;;3.78;2.75;;;;;;;;;;5886421;28;20558;-74
2023/09/28 16:57:57;;;;;;;10.90;3.33;;;;;;;;;;5888045;28;20044;-74
2023/09/28 17:00:48;;;;;;;10.93;3.83;;;;;;;;;;5886575;28;20045;-73
2023/09/28 17:03:39;;;;;;;5.40;3.20;;;;;;;;;;5887526;28;20048;-74
2023/09/28 17:06:30;;;;;;;4.03;2.72;;;;;;;;;;5911110;28;20059;-74
2023/09/28 17:09:21;;;;;;;4.53;2.67;;;;;;;;;;5911757;28;20052;-73